sensor_id;sensor_type;location;lat;lon;timestamp;P1;durP1;ratioP1;P2;durP2;ratioP2
23222;SDS011;11780;13.904;100.620;2022-07-29T00:01:50;27.42;;;23.48;;
23222;SDS011;11780;13.904;100.620;2022-07-29T00:04:21;29.00;;;23.00;;
23222;SDS011;11780;13.904;100.620;2022-07-29T00:06:52;23.23;;;18.70;;
23222;SDS011;11780;13.904;100.620;2022-07-29T00:09:22;26.50;;;20.95;;
23222;SDS011;11780;13.904;100.620;2022-07-29T00:11:52;29.40;;;23.08;;
23222;SDS011;11780;13.904;100.620;2022-07-29T00:16:53;26.38;;;19.17;;
23222;SDS011;11780;13.904;100.620;2022-07-29T00:19:24;21.02;;;17.63;;
23222;SDS011;11780;13.904;100.620;2022-07-29T00:21:54;21.30;;;17.00;;
23222;SDS011;11780;13.904;100.620;2022-07-29T00:24:25;29.53;;;22.00;;
23222;SDS011;11780;13.904;100.620;2022-07-29T00:26:56;26.67;;;21.45;;
23222;SDS011;11780;13.904;100.620;2022-07-29T00:29:27;33.83;;;22.53;;
23222;SDS011;11780;13.904;100.620;2022-07-29T00:32:01;23.75;;;17.48;;
23222;SDS011;11780;13.904;100.620;2022-07-29T00:34:32;24.60;;;18.10;;
23222;SDS011;11780;13.904;100.620;2022-07-29T00:37:22;22.42;;;19.00;;
23222;SDS011;11780;13.904;100.620;2022-07-29T00:39:52;22.67;;;17.10;;
23222;SDS011;11780;13.904;100.620;2022-07-29T00:42:23;17.88;;;15.70;;
23222;SDS011;11780;13.904;100.620;2022-07-29T00:44:54;23.40;;;19.37;;
23222;SDS011;11780;13.904;100.620;2022-07-29T00:47:24;21.70;;;19.40;;
23222;SDS011;11780;13.904;100.620;2022-07-29T00:49:55;23.13;;;19.47;;
23222;SDS011;11780;13.904;100.620;2022-07-29T00:52:26;20.42;;;17.15;;
23222;SDS011;11780;13.904;100.620;2022-07-29T00:54:57;25.88;;;19.70;;
23222;SDS011;11780;13.904;100.620;2022-07-29T00:57:34;27.30;;;20.42;;
23222;SDS011;11780;13.904;100.620;2022-07-29T01:00:07;19.90;;;17.45;;
23222;SDS011;11780;13.904;100.620;2022-07-29T01:02:40;23.05;;;19.40;;
23222;SDS011;11780;13.904;100.620;2022-07-29T01:05:11;24.67;;;18.30;;
23222;SDS011;11780;13.904;100.620;2022-07-29T01:07:43;27.88;;;20.75;;
23222;SDS011;11780;13.904;100.620;2022-07-29T01:10:15;25.65;;;21.38;;
23222;SDS011;11780;13.904;100.620;2022-07-29T01:12:47;23.98;;;19.17;;
23222;SDS011;11780;13.904;100.620;2022-07-29T01:15:20;24.02;;;18.42;;
23222;SDS011;11780;13.904;100.620;2022-07-29T01:18:28;20.27;;;17.77;;
23222;SDS011;11780;13.904;100.620;2022-07-29T01:26:41;21.70;;;19.15;;
23222;SDS011;11780;13.904;100.620;2022-07-29T01:29:23;22.38;;;17.50;;
23222;SDS011;11780;13.904;100.620;2022-07-29T01:32:08;22.45;;;19.20;;
23222;SDS011;11780;13.904;100.620;2022-07-29T01:34:58;16.52;;;14.57;;
23222;SDS011;11780;13.904;100.620;2022-07-29T01:37:39;17.17;;;14.93;;
23222;SDS011;11780;13.904;100.620;2022-07-29T01:43:20;19.10;;;15.82;;
23222;SDS011;11780;13.904;100.620;2022-07-29T01:46:05;18.45;;;15.00;;
23222;SDS011;11780;13.904;100.620;2022-07-29T01:48:47;19.05;;;14.20;;
23222;SDS011;11780;13.904;100.620;2022-07-29T01:52:15;17.23;;;14.18;;
23222;SDS011;11780;13.904;100.620;2022-07-29T01:54:32;17.33;;;13.55;;
23222;SDS011;11780;13.904;100.620;2022-07-29T01:57:13;20.63;;;14.35;;
23222;SDS011;11780;13.904;100.620;2022-07-29T01:59:47;17.40;;;14.32;;
23222;SDS011;11780;13.904;100.620;2022-07-29T02:02:19;19.08;;;14.05;;
23222;SDS011;11780;13.904;100.620;2022-07-29T02:04:52;17.48;;;13.82;;
23222;SDS011;11780;13.904;100.620;2022-07-29T02:07:25;21.63;;;13.13;;
23222;SDS011;11780;13.904;100.620;2022-07-29T02:09:59;13.02;;;11.35;;
23222;SDS011;11780;13.904;100.620;2022-07-29T02:12:32;11.88;;;10.73;;
23222;SDS011;11780;13.904;100.620;2022-07-29T02:15:05;14.45;;;11.85;;
23222;SDS011;11780;13.904;100.620;2022-07-29T02:17:41;13.20;;;9.73;;
23222;SDS011;11780;13.904;100.620;2022-07-29T02:20:25;11.80;;;8.75;;
23222;SDS011;11780;13.904;100.620;2022-07-29T02:22:56;10.57;;;8.30;;
23222;SDS011;11780;13.904;100.620;2022-07-29T02:25:29;11.77;;;8.18;;
23222;SDS011;11780;13.904;100.620;2022-07-29T02:28:05;10.05;;;7.22;;
23222;SDS011;11780;13.904;100.620;2022-07-29T02:30:39;8.70;;;7.10;;
23222;SDS011;11780;13.904;100.620;2022-07-29T02:33:13;9.85;;;7.60;;
23222;SDS011;11780;13.904;100.620;2022-07-29T02:35:46;11.10;;;7.97;;
23222;SDS011;11780;13.904;100.620;2022-07-29T02:38:17;9.68;;;8.45;;
23222;SDS011;11780;13.904;100.620;2022-07-29T02:41:09;11.25;;;9.05;;
23222;SDS011;11780;13.904;100.620;2022-07-29T02:43:42;12.25;;;8.30;;
23222;SDS011;11780;13.904;100.620;2022-07-29T02:46:20;9.45;;;7.75;;
23222;SDS011;11780;13.904;100.620;2022-07-29T02:48:58;9.00;;;7.18;;
23222;SDS011;11780;13.904;100.620;2022-07-29T02:51:45;8.30;;;7.43;;
23222;SDS011;11780;13.904;100.620;2022-07-29T03:00:21;9.10;;;7.32;;
23222;SDS011;11780;13.904;100.620;2022-07-29T03:02:58;11.27;;;7.20;;
23222;SDS011;11780;13.904;100.620;2022-07-29T03:05:31;8.75;;;7.38;;
23222;SDS011;11780;13.904;100.620;2022-07-29T03:08:04;9.48;;;7.03;;
23222;SDS011;11780;13.904;100.620;2022-07-29T03:10:37;10.20;;;7.60;;
23222;SDS011;11780;13.904;100.620;2022-07-29T04:13:35;6.05;;;5.40;;
23222;SDS011;11780;13.904;100.620;2022-07-29T04:16:06;5.85;;;4.80;;
23222;SDS011;11780;13.904;100.620;2022-07-29T04:18:37;6.03;;;5.05;;
23222;SDS011;11780;13.904;100.620;2022-07-29T04:21:08;5.90;;;4.57;;
23222;SDS011;11780;13.904;100.620;2022-07-29T04:26:19;6.25;;;4.68;;
23222;SDS011;11780;13.904;100.620;2022-07-29T04:31:20;6.82;;;5.05;;
23222;SDS011;11780;13.904;100.620;2022-07-29T04:36:22;5.00;;;4.60;;
23222;SDS011;11780;13.904;100.620;2022-07-29T04:38:55;6.57;;;4.60;;
23222;SDS011;11780;13.904;100.620;2022-07-29T04:43:59;6.18;;;4.68;;
23222;SDS011;11780;13.904;100.620;2022-07-29T04:46:35;5.10;;;4.32;;
23222;SDS011;11780;13.904;100.620;2022-07-29T04:49:06;5.70;;;4.88;;
23222;SDS011;11780;13.904;100.620;2022-07-29T04:51:37;6.25;;;5.25;;
23222;SDS011;11780;13.904;100.620;2022-07-29T04:54:07;5.83;;;4.90;;
23222;SDS011;11780;13.904;100.620;2022-07-29T04:56:38;5.43;;;4.90;;
23222;SDS011;11780;13.904;100.620;2022-07-29T04:59:09;5.47;;;4.97;;
23222;SDS011;11780;13.904;100.620;2022-07-29T05:01:39;6.00;;;4.78;;
23222;SDS011;11780;13.904;100.620;2022-07-29T05:04:10;6.68;;;5.10;;
23222;SDS011;11780;13.904;100.620;2022-07-29T05:06:42;7.20;;;5.25;;
23222;SDS011;11780;13.904;100.620;2022-07-29T05:09:12;5.73;;;5.20;;
23222;SDS011;11780;13.904;100.620;2022-07-29T05:11:43;6.97;;;5.43;;
23222;SDS011;11780;13.904;100.620;2022-07-29T05:14:14;6.40;;;5.80;;
23222;SDS011;11780;13.904;100.620;2022-07-29T05:19:15;5.82;;;5.28;;
23222;SDS011;11780;13.904;100.620;2022-07-29T05:21:47;6.10;;;5.50;;
23222;SDS011;11780;13.904;100.620;2022-07-29T05:24:17;7.68;;;5.15;;
23222;SDS011;11780;13.904;100.620;2022-07-29T05:26:48;6.80;;;5.50;;
23222;SDS011;11780;13.904;100.620;2022-07-29T05:29:19;5.60;;;5.10;;
23222;SDS011;11780;13.904;100.620;2022-07-29T05:32:09;5.87;;;4.57;;
23222;SDS011;11780;13.904;100.620;2022-07-29T05:34:40;7.82;;;4.70;;
23222;SDS011;11780;13.904;100.620;2022-07-29T05:37:18;8.15;;;5.40;;
23222;SDS011;11780;13.904;100.620;2022-07-29T05:39:50;6.20;;;4.82;;
23222;SDS011;11780;13.904;100.620;2022-07-29T05:42:23;5.38;;;4.88;;
23222;SDS011;11780;13.904;100.620;2022-07-29T05:44:54;8.02;;;5.25;;
23222;SDS011;11780;13.904;100.620;2022-07-29T05:47:26;7.32;;;4.60;;
23222;SDS011;11780;13.904;100.620;2022-07-29T05:49:56;6.55;;;5.25;;
23222;SDS011;11780;13.904;100.620;2022-07-29T05:52:27;5.60;;;4.63;;
23222;SDS011;11780;13.904;100.620;2022-07-29T05:54:58;5.80;;;4.73;;
23222;SDS011;11780;13.904;100.620;2022-07-29T05:57:32;6.20;;;4.93;;
23222;SDS011;11780;13.904;100.620;2022-07-29T06:00:03;5.53;;;4.93;;
23222;SDS011;11780;13.904;100.620;2022-07-29T06:02:40;7.85;;;5.00;;
23222;SDS011;11780;13.904;100.620;2022-07-29T06:05:10;7.00;;;5.35;;
23222;SDS011;11780;13.904;100.620;2022-07-29T06:07:43;7.55;;;5.10;;
23222;SDS011;11780;13.904;100.620;2022-07-29T06:10:17;5.75;;;4.72;;
23222;SDS011;11780;13.904;100.620;2022-07-29T06:12:53;5.50;;;4.93;;
23222;SDS011;11780;13.904;100.620;2022-07-29T06:15:24;6.03;;;5.50;;
23222;SDS011;11780;13.904;100.620;2022-07-29T06:17:55;7.63;;;5.53;;
23222;SDS011;11780;13.904;100.620;2022-07-29T06:20:31;5.78;;;5.25;;
23222;SDS011;11780;13.904;100.620;2022-07-29T06:23:02;5.28;;;4.88;;
23222;SDS011;11780;13.904;100.620;2022-07-29T06:25:34;5.82;;;5.32;;
23222;SDS011;11780;13.904;100.620;2022-07-29T06:28:06;7.93;;;5.68;;
23222;SDS011;11780;13.904;100.620;2022-07-29T06:30:37;5.75;;;5.13;;
23222;SDS011;11780;13.904;100.620;2022-07-29T06:33:18;5.82;;;5.22;;
23222;SDS011;11780;13.904;100.620;2022-07-29T06:35:49;6.07;;;5.43;;
23222;SDS011;11780;13.904;100.620;2022-07-29T06:38:21;6.57;;;5.97;;
23222;SDS011;11780;13.904;100.620;2022-07-29T06:41:00;5.43;;;4.80;;
23222;SDS011;11780;13.904;100.620;2022-07-29T06:43:35;6.38;;;5.72;;
23222;SDS011;11780;13.904;100.620;2022-07-29T06:46:17;5.47;;;4.90;;
23222;SDS011;11780;13.904;100.620;2022-07-29T06:48:48;5.38;;;4.85;;
23222;SDS011;11780;13.904;100.620;2022-07-29T06:51:20;6.15;;;4.80;;
23222;SDS011;11780;13.904;100.620;2022-07-29T06:53:51;6.50;;;5.40;;
23222;SDS011;11780;13.904;100.620;2022-07-29T06:56:32;7.13;;;5.50;;
23222;SDS011;11780;13.904;100.620;2022-07-29T06:59:07;5.97;;;5.38;;
23222;SDS011;11780;13.904;100.620;2022-07-29T07:01:40;6.50;;;4.97;;
23222;SDS011;11780;13.904;100.620;2022-07-29T07:04:12;7.43;;;5.50;;
23222;SDS011;11780;13.904;100.620;2022-07-29T07:06:43;7.13;;;5.13;;
23222;SDS011;11780;13.904;100.620;2022-07-29T07:09:13;5.28;;;4.88;;
23222;SDS011;11780;13.904;100.620;2022-07-29T07:11:43;6.35;;;5.72;;
23222;SDS011;11780;13.904;100.620;2022-07-29T07:14:16;6.68;;;5.43;;
23222;SDS011;11780;13.904;100.620;2022-07-29T07:16:47;5.80;;;5.05;;
23222;SDS011;11780;13.904;100.620;2022-07-29T07:19:20;5.07;;;4.68;;
23222;SDS011;11780;13.904;100.620;2022-07-29T07:21:50;5.63;;;5.13;;
23222;SDS011;11780;13.904;100.620;2022-07-29T07:24:22;5.97;;;4.95;;
23222;SDS011;11780;13.904;100.620;2022-07-29T07:26:52;4.95;;;4.55;;
23222;SDS011;11780;13.904;100.620;2022-07-29T07:29:22;6.63;;;5.32;;
23222;SDS011;11780;13.904;100.620;2022-07-29T07:31:52;5.82;;;5.22;;
23222;SDS011;11780;13.904;100.620;2022-07-29T07:34:27;8.98;;;5.40;;
23222;SDS011;11780;13.904;100.620;2022-07-29T07:36:59;6.18;;;5.57;;
23222;SDS011;11780;13.904;100.620;2022-07-29T07:39:29;8.13;;;5.60;;
23222;SDS011;11780;13.904;100.620;2022-07-29T07:41:59;7.97;;;5.65;;
23222;SDS011;11780;13.904;100.620;2022-07-29T07:44:29;6.50;;;5.88;;
23222;SDS011;11780;13.904;100.620;2022-07-29T07:47:19;6.35;;;5.75;;
23222;SDS011;11780;13.904;100.620;2022-07-29T07:49:53;5.53;;;4.97;;
23222;SDS011;11780;13.904;100.620;2022-07-29T07:52:23;7.47;;;5.68;;
23222;SDS011;11780;13.904;100.620;2022-07-29T07:54:53;6.28;;;5.45;;
23222;SDS011;11780;13.904;100.620;2022-07-29T07:57:23;5.97;;;5.45;;
23222;SDS011;11780;13.904;100.620;2022-07-29T07:59:53;6.57;;;5.78;;
23222;SDS011;11780;13.904;100.620;2022-07-29T08:02:23;6.82;;;5.18;;
23222;SDS011;11780;13.904;100.620;2022-07-29T08:04:54;9.35;;;5.82;;
23222;SDS011;11780;13.904;100.620;2022-07-29T08:07:24;5.20;;;4.70;;
23222;SDS011;11780;13.904;100.620;2022-07-29T08:09:54;7.07;;;4.97;;
23222;SDS011;11780;13.904;100.620;2022-07-29T08:12:24;11.27;;;4.85;;
23222;SDS011;11780;13.904;100.620;2022-07-29T08:14:54;5.82;;;4.70;;
23222;SDS011;11780;13.904;100.620;2022-07-29T08:17:25;5.50;;;4.97;;
23222;SDS011;11780;13.904;100.620;2022-07-29T08:19:55;5.57;;;5.05;;
23222;SDS011;11780;13.904;100.620;2022-07-29T08:22:26;6.13;;;5.23;;
23222;SDS011;11780;13.904;100.620;2022-07-29T08:24:57;6.72;;;4.82;;
23222;SDS011;11780;13.904;100.620;2022-07-29T08:27:27;5.70;;;4.97;;
23222;SDS011;11780;13.904;100.620;2022-07-29T08:30:10;6.07;;;5.32;;
23222;SDS011;11780;13.904;100.620;2022-07-29T08:32:40;8.57;;;5.80;;
23222;SDS011;11780;13.904;100.620;2022-07-29T08:35:21;6.07;;;5.30;;
23222;SDS011;11780;13.904;100.620;2022-07-29T08:37:52;7.68;;;6.18;;
23222;SDS011;11780;13.904;100.620;2022-07-29T08:40:23;7.87;;;6.27;;
23222;SDS011;11780;13.904;100.620;2022-07-29T08:43:07;9.27;;;7.45;;
23222;SDS011;11780;13.904;100.620;2022-07-29T08:48:15;9.40;;;8.50;;
23222;SDS011;11780;13.904;100.620;2022-07-29T08:50:48;9.98;;;8.50;;
23222;SDS011;11780;13.904;100.620;2022-07-29T08:53:23;16.10;;;9.95;;
23222;SDS011;11780;13.904;100.620;2022-07-29T08:55:56;12.52;;;11.38;;
23222;SDS011;11780;13.904;100.620;2022-07-29T08:58:29;17.17;;;10.65;;
23222;SDS011;11780;13.904;100.620;2022-07-29T09:01:04;11.98;;;10.77;;
23222;SDS011;11780;13.904;100.620;2022-07-29T09:03:40;14.30;;;9.70;;
23222;SDS011;11780;13.904;100.620;2022-07-29T09:06:13;11.15;;;10.05;;
23222;SDS011;11780;13.904;100.620;2022-07-29T09:08:46;12.32;;;10.20;;
23222;SDS011;11780;13.904;100.620;2022-07-29T09:11:18;14.68;;;11.07;;
23222;SDS011;11780;13.904;100.620;2022-07-29T09:13:48;11.10;;;9.63;;
23222;SDS011;11780;13.904;100.620;2022-07-29T09:16:19;12.70;;;11.20;;
23222;SDS011;11780;13.904;100.620;2022-07-29T09:22:28;13.20;;;10.43;;
23222;SDS011;11780;13.904;100.620;2022-07-29T09:25:02;14.65;;;11.32;;
23222;SDS011;11780;13.904;100.620;2022-07-29T09:27:33;12.77;;;11.50;;
23222;SDS011;11780;13.904;100.620;2022-07-29T09:30:04;11.48;;;10.10;;
23222;SDS011;11780;13.904;100.620;2022-07-29T09:32:56;14.05;;;11.63;;
23222;SDS011;11780;13.904;100.620;2022-07-29T09:35:30;15.07;;;10.80;;
23222;SDS011;11780;13.904;100.620;2022-07-29T09:38:21;13.43;;;9.93;;
23222;SDS011;11780;13.904;100.620;2022-07-29T09:40:57;15.57;;;9.95;;
23222;SDS011;11780;13.904;100.620;2022-07-29T09:43:32;23.50;;;13.90;;
23222;SDS011;11780;13.904;100.620;2022-07-29T09:46:12;17.13;;;11.68;;
23222;SDS011;11780;13.904;100.620;2022-07-29T09:48:43;23.70;;;16.40;;
23222;SDS011;11780;13.904;100.620;2022-07-29T09:51:17;23.80;;;14.25;;
23222;SDS011;11780;13.904;100.620;2022-07-29T09:54:23;15.57;;;10.88;;
23222;SDS011;11780;13.904;100.620;2022-07-29T09:56:55;16.65;;;9.70;;
23222;SDS011;11780;13.904;100.620;2022-07-29T09:59:25;11.18;;;10.02;;
23222;SDS011;11780;13.904;100.620;2022-07-29T10:01:55;10.20;;;8.73;;
23222;SDS011;11780;13.904;100.620;2022-07-29T10:04:46;9.93;;;9.00;;
23222;SDS011;11780;13.904;100.620;2022-07-29T10:07:16;13.07;;;9.70;;
23222;SDS011;11780;13.904;100.620;2022-07-29T10:09:52;9.45;;;8.57;;
23222;SDS011;11780;13.904;100.620;2022-07-29T10:12:23;11.30;;;9.50;;
23222;SDS011;11780;13.904;100.620;2022-07-29T10:14:53;9.68;;;8.35;;
23222;SDS011;11780;13.904;100.620;2022-07-29T10:17:24;13.40;;;9.47;;
23222;SDS011;11780;13.904;100.620;2022-07-29T10:19:54;12.52;;;9.55;;
23222;SDS011;11780;13.904;100.620;2022-07-29T10:22:25;12.88;;;9.63;;
23222;SDS011;11780;13.904;100.620;2022-07-29T10:25:16;11.45;;;10.00;;
23222;SDS011;11780;13.904;100.620;2022-07-29T10:27:47;14.48;;;10.00;;
23222;SDS011;11780;13.904;100.620;2022-07-29T10:30:21;13.40;;;9.43;;
23222;SDS011;11780;13.904;100.620;2022-07-29T10:38:36;13.10;;;9.57;;
23222;SDS011;11780;13.904;100.620;2022-07-29T10:44:22;11.65;;;10.43;;
23222;SDS011;11780;13.904;100.620;2022-07-29T10:46:54;12.88;;;9.35;;
23222;SDS011;11780;13.904;100.620;2022-07-29T10:49:25;11.50;;;9.25;;
23222;SDS011;11780;13.904;100.620;2022-07-29T10:52:00;12.32;;;9.52;;
23222;SDS011;11780;13.904;100.620;2022-07-29T10:59:47;12.27;;;8.40;;
23222;SDS011;11780;13.904;100.620;2022-07-29T11:05:20;9.43;;;7.13;;
23222;SDS011;11780;13.904;100.620;2022-07-29T11:10:50;7.57;;;5.75;;
23222;SDS011;11780;13.904;100.620;2022-07-29T11:16:21;7.53;;;6.32;;
23222;SDS011;11780;13.904;100.620;2022-07-29T11:21:41;7.65;;;6.25;;
23222;SDS011;11780;13.904;100.620;2022-07-29T11:24:27;8.43;;;6.10;;
23222;SDS011;11780;13.904;100.620;2022-07-29T11:27:14;10.05;;;5.93;;
23222;SDS011;11780;13.904;100.620;2022-07-29T11:29:55;9.30;;;5.38;;
23222;SDS011;11780;13.904;100.620;2022-07-29T11:32:35;9.50;;;6.40;;
23222;SDS011;11780;13.904;100.620;2022-07-29T11:35:15;7.35;;;5.80;;
23222;SDS011;11780;13.904;100.620;2022-07-29T11:43:47;7.15;;;5.68;;
23222;SDS011;11780;13.904;100.620;2022-07-29T11:49:12;7.22;;;4.82;;
23222;SDS011;11780;13.904;100.620;2022-07-29T11:51:59;10.05;;;5.18;;
23222;SDS011;11780;13.904;100.620;2022-07-29T11:54:31;6.03;;;5.00;;
23222;SDS011;11780;13.904;100.620;2022-07-29T11:57:24;7.18;;;5.45;;
23222;SDS011;11780;13.904;100.620;2022-07-29T12:00:06;5.68;;;4.93;;
23222;SDS011;11780;13.904;100.620;2022-07-29T12:02:44;6.38;;;5.10;;
23222;SDS011;11780;13.904;100.620;2022-07-29T12:05:15;8.63;;;4.97;;
23222;SDS011;11780;13.904;100.620;2022-07-29T12:08:06;7.22;;;4.63;;
23222;SDS011;11780;13.904;100.620;2022-07-29T12:10:42;6.75;;;4.65;;
23222;SDS011;11780;13.904;100.620;2022-07-29T12:13:14;8.27;;;5.07;;
23222;SDS011;11780;13.904;100.620;2022-07-29T12:15:55;8.63;;;5.10;;
23222;SDS011;11780;13.904;100.620;2022-07-29T12:18:28;6.68;;;5.45;;
23222;SDS011;11780;13.904;100.620;2022-07-29T12:20:59;5.70;;;4.75;;
23222;SDS011;11780;13.904;100.620;2022-07-29T12:23:33;5.65;;;4.40;;
23222;SDS011;11780;13.904;100.620;2022-07-29T12:26:04;6.70;;;3.90;;
23222;SDS011;11780;13.904;100.620;2022-07-29T12:28:48;6.72;;;3.75;;
23222;SDS011;11780;13.904;100.620;2022-07-29T12:31:20;9.30;;;4.30;;
23222;SDS011;11780;13.904;100.620;2022-07-29T12:34:12;5.47;;;4.00;;
23222;SDS011;11780;13.904;100.620;2022-07-29T12:36:43;5.80;;;4.60;;
23222;SDS011;11780;13.904;100.620;2022-07-29T12:39:14;6.20;;;4.15;;
23222;SDS011;11780;13.904;100.620;2022-07-29T12:41:46;5.05;;;4.18;;
23222;SDS011;11780;13.904;100.620;2022-07-29T12:44:16;7.88;;;3.63;;
23222;SDS011;11780;13.904;100.620;2022-07-29T12:47:00;4.05;;;3.63;;
23222;SDS011;11780;13.904;100.620;2022-07-29T12:49:32;5.80;;;3.67;;
23222;SDS011;11780;13.904;100.620;2022-07-29T12:52:23;5.28;;;3.55;;
23222;SDS011;11780;13.904;100.620;2022-07-29T12:54:55;8.50;;;3.53;;
23222;SDS011;11780;13.904;100.620;2022-07-29T12:57:26;4.90;;;3.90;;
23222;SDS011;11780;13.904;100.620;2022-07-29T13:00:00;6.05;;;3.70;;
23222;SDS011;11780;13.904;100.620;2022-07-29T13:02:37;4.80;;;3.92;;
23222;SDS011;11780;13.904;100.620;2022-07-29T13:05:10;6.35;;;3.60;;
23222;SDS011;11780;13.904;100.620;2022-07-29T13:07:41;6.47;;;3.60;;
23222;SDS011;11780;13.904;100.620;2022-07-29T13:10:23;12.93;;;3.90;;
23222;SDS011;11780;13.904;100.620;2022-07-29T13:13:04;5.30;;;3.60;;
23222;SDS011;11780;13.904;100.620;2022-07-29T13:15:38;8.35;;;3.67;;
23222;SDS011;11780;13.904;100.620;2022-07-29T13:21:11;5.53;;;3.60;;
23222;SDS011;11780;13.904;100.620;2022-07-29T13:23:44;5.28;;;3.22;;
23222;SDS011;11780;13.904;100.620;2022-07-29T13:26:14;5.50;;;3.90;;
23222;SDS011;11780;13.904;100.620;2022-07-29T13:28:48;5.57;;;3.60;;
23222;SDS011;11780;13.904;100.620;2022-07-29T13:31:19;5.47;;;3.42;;
23222;SDS011;11780;13.904;100.620;2022-07-29T13:33:49;4.22;;;3.42;;
23222;SDS011;11780;13.904;100.620;2022-07-29T13:38:50;4.07;;;3.38;;
23222;SDS011;11780;13.904;100.620;2022-07-29T13:41:20;6.10;;;3.13;;
23222;SDS011;11780;13.904;100.620;2022-07-29T13:43:51;4.25;;;3.03;;
23222;SDS011;11780;13.904;100.620;2022-07-29T13:46:22;9.02;;;3.67;;
23222;SDS011;11780;13.904;100.620;2022-07-29T13:48:52;4.15;;;3.03;;
23222;SDS011;11780;13.904;100.620;2022-07-29T13:51:23;5.53;;;3.33;;
23222;SDS011;11780;13.904;100.620;2022-07-29T13:53:53;3.90;;;3.47;;
23222;SDS011;11780;13.904;100.620;2022-07-29T13:56:23;4.18;;;2.90;;
23222;SDS011;11780;13.904;100.620;2022-07-29T13:58:53;8.13;;;3.50;;
23222;SDS011;11780;13.904;100.620;2022-07-29T14:01:23;4.45;;;3.08;;
23222;SDS011;11780;13.904;100.620;2022-07-29T14:03:55;7.95;;;3.20;;
23222;SDS011;11780;13.904;100.620;2022-07-29T14:08:56;6.05;;;3.20;;
23222;SDS011;11780;13.904;100.620;2022-07-29T14:11:26;4.47;;;3.03;;
23222;SDS011;11780;13.904;100.620;2022-07-29T14:13:56;3.30;;;3.00;;
23222;SDS011;11780;13.904;100.620;2022-07-29T14:16:27;4.65;;;3.40;;
23222;SDS011;11780;13.904;100.620;2022-07-29T14:18:57;7.63;;;3.65;;
23222;SDS011;11780;13.904;100.620;2022-07-29T14:21:27;6.07;;;3.20;;
23222;SDS011;11780;13.904;100.620;2022-07-29T14:23:59;5.78;;;3.00;;
23222;SDS011;11780;13.904;100.620;2022-07-29T14:26:44;5.97;;;3.22;;
23222;SDS011;11780;13.904;100.620;2022-07-29T14:29:14;6.13;;;2.85;;
23222;SDS011;11780;13.904;100.620;2022-07-29T14:31:44;4.93;;;3.20;;
23222;SDS011;11780;13.904;100.620;2022-07-29T14:34:15;3.93;;;2.93;;
23222;SDS011;11780;13.904;100.620;2022-07-29T14:36:45;4.80;;;3.40;;
23222;SDS011;11780;13.904;100.620;2022-07-29T14:39:15;5.32;;;3.03;;
23222;SDS011;11780;13.904;100.620;2022-07-29T14:41:45;7.32;;;3.33;;
23222;SDS011;11780;13.904;100.620;2022-07-29T14:44:15;4.13;;;3.47;;
23222;SDS011;11780;13.904;100.620;2022-07-29T14:49:16;5.75;;;3.67;;
23222;SDS011;11780;13.904;100.620;2022-07-29T14:51:47;4.65;;;3.33;;
23222;SDS011;11780;13.904;100.620;2022-07-29T14:54:18;3.50;;;3.13;;
23222;SDS011;11780;13.904;100.620;2022-07-29T14:56:48;6.32;;;3.78;;
23222;SDS011;11780;13.904;100.620;2022-07-29T14:59:20;3.50;;;3.20;;
23222;SDS011;11780;13.904;100.620;2022-07-29T15:01:50;4.03;;;3.20;;
23222;SDS011;11780;13.904;100.620;2022-07-29T15:04:20;3.95;;;3.17;;
23222;SDS011;11780;13.904;100.620;2022-07-29T15:06:51;4.40;;;3.30;;
23222;SDS011;11780;13.904;100.620;2022-07-29T15:09:22;7.88;;;3.42;;
23222;SDS011;11780;13.904;100.620;2022-07-29T15:11:52;7.13;;;3.60;;
23222;SDS011;11780;13.904;100.620;2022-07-29T15:14:23;6.20;;;3.08;;
23222;SDS011;11780;13.904;100.620;2022-07-29T15:16:53;6.30;;;3.45;;
23222;SDS011;11780;13.904;100.620;2022-07-29T15:19:23;4.67;;;3.40;;
23222;SDS011;11780;13.904;100.620;2022-07-29T15:21:53;5.30;;;3.55;;
23222;SDS011;11780;13.904;100.620;2022-07-29T15:24:25;4.55;;;3.13;;
23222;SDS011;11780;13.904;100.620;2022-07-29T15:26:56;8.30;;;3.33;;
23222;SDS011;11780;13.904;100.620;2022-07-29T15:29:26;5.55;;;2.90;;
23222;SDS011;11780;13.904;100.620;2022-07-29T15:31:57;7.05;;;3.15;;
23222;SDS011;11780;13.904;100.620;2022-07-29T15:34:27;4.22;;;3.03;;
23222;SDS011;11780;13.904;100.620;2022-07-29T15:36:58;3.22;;;2.92;;
23222;SDS011;11780;13.904;100.620;2022-07-29T15:39:28;4.22;;;2.88;;
23222;SDS011;11780;13.904;100.620;2022-07-29T15:41:58;5.45;;;3.42;;
23222;SDS011;11780;13.904;100.620;2022-07-29T15:44:29;5.30;;;2.97;;
23222;SDS011;11780;13.904;100.620;2022-07-29T15:46:59;6.22;;;2.97;;
23222;SDS011;11780;13.904;100.620;2022-07-29T15:49:33;2.88;;;2.55;;
23222;SDS011;11780;13.904;100.620;2022-07-29T15:52:16;2.85;;;2.60;;
23222;SDS011;11780;13.904;100.620;2022-07-29T15:54:52;5.28;;;2.90;;
23222;SDS011;11780;13.904;100.620;2022-07-29T15:57:24;4.53;;;2.50;;
23222;SDS011;11780;13.904;100.620;2022-07-29T15:59:54;4.00;;;2.60;;
23222;SDS011;11780;13.904;100.620;2022-07-29T16:02:25;4.32;;;2.88;;
23222;SDS011;11780;13.904;100.620;2022-07-29T16:04:55;2.83;;;2.63;;
23222;SDS011;11780;13.904;100.620;2022-07-29T16:07:25;3.38;;;2.90;;
23222;SDS011;11780;13.904;100.620;2022-07-29T16:09:58;3.42;;;2.55;;
23222;SDS011;11780;13.904;100.620;2022-07-29T16:12:29;2.78;;;2.50;;
23222;SDS011;11780;13.904;100.620;2022-07-29T16:14:59;4.35;;;2.95;;
23222;SDS011;11780;13.904;100.620;2022-07-29T16:17:35;7.78;;;2.78;;
23222;SDS011;11780;13.904;100.620;2022-07-29T16:20:06;4.63;;;2.65;;
23222;SDS011;11780;13.904;100.620;2022-07-29T16:22:40;3.95;;;2.70;;
23222;SDS011;11780;13.904;100.620;2022-07-29T16:25:10;4.15;;;2.40;;
23222;SDS011;11780;13.904;100.620;2022-07-29T16:27:40;3.95;;;2.67;;
23222;SDS011;11780;13.904;100.620;2022-07-29T16:30:10;5.32;;;2.60;;
23222;SDS011;11780;13.904;100.620;2022-07-29T16:32:41;6.37;;;2.87;;
23222;SDS011;11780;13.904;100.620;2022-07-29T16:35:11;3.35;;;2.60;;
23222;SDS011;11780;13.904;100.620;2022-07-29T16:37:41;4.97;;;3.10;;
23222;SDS011;11780;13.904;100.620;2022-07-29T16:40:11;4.13;;;2.55;;
23222;SDS011;11780;13.904;100.620;2022-07-29T16:42:42;5.13;;;2.90;;
23222;SDS011;11780;13.904;100.620;2022-07-29T16:45:14;2.85;;;2.50;;
23222;SDS011;11780;13.904;100.620;2022-07-29T16:47:47;3.65;;;2.85;;
23222;SDS011;11780;13.904;100.620;2022-07-29T16:50:21;2.78;;;2.45;;
23222;SDS011;11780;13.904;100.620;2022-07-29T16:52:52;2.63;;;2.42;;
23222;SDS011;11780;13.904;100.620;2022-07-29T16:55:23;4.93;;;2.50;;
23222;SDS011;11780;13.904;100.620;2022-07-29T16:57:54;4.50;;;2.70;;
23222;SDS011;11780;13.904;100.620;2022-07-29T17:00:24;3.63;;;3.17;;
23222;SDS011;11780;13.904;100.620;2022-07-29T17:02:55;4.32;;;3.00;;
23222;SDS011;11780;13.904;100.620;2022-07-29T17:05:26;4.68;;;2.80;;
23222;SDS011;11780;13.904;100.620;2022-07-29T17:08:16;3.67;;;2.40;;
23222;SDS011;11780;13.904;100.620;2022-07-29T17:10:46;4.65;;;2.97;;
23222;SDS011;11780;13.904;100.620;2022-07-29T17:13:16;3.05;;;2.50;;
23222;SDS011;11780;13.904;100.620;2022-07-29T17:15:46;2.72;;;2.40;;